EKSG weather

Schelenburg God Heliport
Zealand, Denmark

Public forecast

Using degrees Celsius for public forecast. Weather courtesy of forecast.io.

Closest aviation weather report (METAR) to Schelenburg God Heliport

Closest report is Odense Airport, 11.1 nm (20.6 km) WSW. Retrieved 2020/04/02 11:50 UTC (22 minutes ago):

EKOD 021150Z 24018G34KT 200V280 9999 FEW025 SCT035 BKN046 10/05 Q1001

Closest aviation forecast (TAF) to Schelenburg God Heliport

Forecast is more than 12 hours old.

Closest forecast is S√łnderborg Airport, 45.2 nm (83.7 km) SW. Retrieved 2016/01/27 09:03 UTC (4 years ago):

TAF TAF EKSB 270856Z 2709/2721 23022KT 5000 -RA BR BKN008 TEMPO 2709/2721 24025G40KT 2000 RADZ BKN004